CEB568 RPVM-RPLL
Flight info
| Callsign | CEB568 |
|---|---|
| Flight time | N/A |
| Altitude | 36000 |
| Route | MULOP1Q MULOP W11 CONDE CONDE7R |
| Aircraft | A339/H-SADE1E2E3GHIJ1J3J5M1P2RWXY/LB2D1 |
Departure
| Time | 2026-04-30 15:17 |
|---|---|
| Airport | Mactan Cebu International Airport (RPVM) |
Arrival
| Time | N/A |
|---|---|
| Airport | Ninoy Aquino International Airport (RPLL) |
| Time | Latitude | Longitude | Altitude | Speed | Heading |
|---|---|---|---|---|---|
| 2026-04-30 14:22 | 10.31398 | 123.97842 | 45 ft | 0 kts | 315° |
| 2026-04-30 14:57 | 10.31397 | 123.97842 | 45 ft | 0 kts | 315° |
| 2026-04-30 15:00 | 10.31378 | 123.97867 | 45 ft | 2 kts | 289° |
| 2026-04-30 15:00 | 10.31375 | 123.97897 | 45 ft | 2 kts | 257° |
| 2026-04-30 15:01 | 10.31388 | 123.97922 | 45 ft | 2 kts | 225° |
| 2026-04-30 15:01 | 10.31395 | 123.97929 | 45 ft | 2 kts | 223° |
| 2026-04-30 15:01 | 10.31420 | 123.97955 | 45 ft | 2 kts | 226° |
| 2026-04-30 15:02 | 10.31428 | 123.97964 | 45 ft | 0 kts | 226° |
| 2026-04-30 15:04 | 10.31428 | 123.97963 | 45 ft | 0 kts | 226° |
| 2026-04-30 15:05 | 10.31346 | 123.97901 | 45 ft | 7 kts | 182° |
| 2026-04-30 15:06 | 10.31239 | 123.97977 | 45 ft | 8 kts | 158° |
| 2026-04-30 15:06 | 10.31136 | 123.97914 | 45 ft | 9 kts | 224° |
| 2026-04-30 15:07 | 10.31042 | 123.97818 | 45 ft | 9 kts | 225° |
| 2026-04-30 15:07 | 10.30961 | 123.97736 | 45 ft | 0 kts | 225° |
| 2026-04-30 15:08 | 10.30944 | 123.97719 | 45 ft | 4 kts | 226° |
| 2026-04-30 15:08 | 10.30852 | 123.97628 | 45 ft | 6 kts | 225° |
| 2026-04-30 15:09 | 10.30799 | 123.97575 | 45 ft | 6 kts | 225° |
| 2026-04-30 15:09 | 10.30712 | 123.97487 | 45 ft | 10 kts | 225° |
| 2026-04-30 15:10 | 10.30591 | 123.97365 | 45 ft | 13 kts | 224° |
| 2026-04-30 15:11 | 10.30432 | 123.97208 | 45 ft | 0 kts | 224° |
| 2026-04-30 15:14 | 10.30348 | 123.97173 | 45 ft | 8 kts | 141° |
| 2026-04-30 15:14 | 10.30339 | 123.97252 | 45 ft | 0 kts | 46° |
| 2026-04-30 15:16 | 10.30453 | 123.97369 | 45 ft | 64 kts | 45° |
| 2026-04-30 15:17 | 10.33501 | 124.00408 | 2422 ft | 169 kts | 47° |
| 2026-04-30 15:18 | 10.40876 | 123.99438 | 4879 ft | 272 kts | 347° |
| 2026-04-30 15:19 | 10.46500 | 123.97798 | 7266 ft | 283 kts | 348° |